Time;durP1;ratioP1;P1;durP2;ratioP2;P2;SDS_P1;SDS_P2;PMS_P1;PMS_P2;Temp;Humidity;BMP_temperature;BMP_pressure;BME280_temperature;BME280_humidity;BME280_pressure;Samples;Min_cycle;Max_cycle;Signal;HPM_P1;HPM_P2
2022/01/13 00:01:42;;;;;;;52.30;16.52;;;5.40;86.10;;;;;;5066308;28;20029;-74
2022/01/13 00:04:13;;;;;;;43.25;14.13;;;5.50;86.10;;;;;;5065064;28;20507;-75
2022/01/13 00:06:40;;;;;;;32.78;13.98;;;5.50;86.20;;;;;;5063581;28;20471;-74
2022/01/13 00:09:06;;;;;;;48.97;13.07;;;5.50;86.10;;;;;;5063709;28;20024;-75
2022/01/13 00:11:32;;;;;;;41.15;16.13;;;5.50;86.00;;;;;;5053895;28;20427;-74
2022/01/13 00:14:22;;;;;;;38.45;14.25;;;5.50;86.00;;;;;;5052697;28;20029;-75
2022/01/13 00:19:45;;;;;;;51.45;15.32;;;5.50;85.90;;;;;;5057994;28;20024;-75
2022/01/13 00:24:42;;;;;;;44.72;15.10;;;5.40;86.00;;;;;;5070276;28;20037;-75
2022/01/13 00:27:11;;;;;;;21.70;9.63;;;5.40;86.00;;;;;;5064689;28;20415;-75
2022/01/13 00:29:41;;;;;;;30.20;11.55;;;5.40;86.00;;;;;;5060933;28;20108;-75
2022/01/13 00:32:07;;;;;;;24.38;9.85;;;5.40;86.00;;;;;;5059157;28;20020;-75
2022/01/13 00:34:33;;;;;;;34.25;13.55;;;5.40;86.10;;;;;;5061738;28;20031;-75
2022/01/13 00:36:58;;;;;;;35.40;14.52;;;5.40;86.00;;;;;;5054393;28;20020;-75
2022/01/13 00:39:24;;;;;;;32.20;13.20;;;5.30;86.00;;;;;;5060777;28;20044;-75
2022/01/13 00:41:50;;;;;;;29.60;12.07;;;5.40;86.10;;;;;;5055881;28;20035;-75
2022/01/13 00:44:19;;;;;;;29.77;12.30;;;5.40;86.20;;;;;;5066710;28;20530;-74
2022/01/13 00:46:48;;;;;;;46.50;11.48;;;5.40;86.20;;;;;;5060455;28;20024;-74
2022/01/13 00:49:14;;;;;;;31.50;12.10;;;5.40;86.10;;;;;;5067315;28;20103;-75
2022/01/13 00:51:41;;;;;;;30.38;11.13;;;5.50;86.20;;;;;;5063335;28;20035;-75
2022/01/13 00:54:08;;;;;;;43.63;12.82;;;5.50;86.10;;;;;;5062604;28;20397;-74
2022/01/13 00:56:34;;;;;;;40.92;14.02;;;5.50;85.90;;;;;;5061127;28;20099;-75
2022/01/13 00:59:01;;;;;;;30.52;12.10;;;5.50;85.80;;;;;;5060951;28;20044;-75
2022/01/13 01:01:27;;;;;;;125.00;18.30;;;5.50;85.80;;;;;;5057968;28;20067;-75
2022/01/13 01:03:52;;;;;;;58.20;14.23;;;5.50;85.90;;;;;;5063419;28;20021;-75
2022/01/13 01:06:18;;;;;;;42.55;13.52;;;5.50;85.80;;;;;;5062789;28;20033;-75
2022/01/13 01:08:44;;;;;;;43.17;13.55;;;5.40;85.80;;;;;;5066240;28;20471;-75
2022/01/13 01:11:09;;;;;;;23.80;10.98;;;5.50;85.90;;;;;;5059909;28;20036;-75
2022/01/13 01:13:36;;;;;;;15.68;7.70;;;5.50;85.80;;;;;;5061237;28;20467;-74
2022/01/13 01:16:07;;;;;;;28.98;11.73;;;5.50;85.80;;;;;;5059728;28;20017;-76
2022/01/13 01:18:41;;;;;;;30.25;11.10;;;5.50;85.80;;;;;;5059926;28;20138;-75
2022/01/13 01:23:59;;;;;;;30.30;12.88;;;5.50;85.60;;;;;;5060978;28;20025;-75
2022/01/13 01:26:39;;;;;;;26.45;10.13;;;5.50;85.70;;;;;;5065363;28;20187;-74
2022/01/13 01:29:20;;;;;;;26.58;11.00;;;5.50;85.80;;;;;;5066396;28;20032;-74
2022/01/13 01:31:49;;;;;;;23.83;10.77;;;5.50;85.70;;;;;;5068681;28;20033;-75
2022/01/13 01:34:36;;;;;;;35.03;10.57;;;5.50;85.80;;;;;;5065102;28;20020;-75
2022/01/13 01:37:02;;;;;;;33.35;12.63;;;5.50;85.70;;;;;;5064854;28;20020;-75
2022/01/13 01:39:28;;;;;;;32.13;12.25;;;5.50;85.80;;;;;;5064588;28;20024;-75
2022/01/13 01:41:56;;;;;;;32.53;12.77;;;5.50;85.70;;;;;;5061369;28;20498;-75
2022/01/13 01:44:33;;;;;;;26.33;10.20;;;5.50;85.60;;;;;;5065421;28;20107;-75
2022/01/13 01:47:00;;;;;;;36.53;13.52;;;5.40;85.70;;;;;;5060690;28;20462;-74
2022/01/13 01:49:26;;;;;;;36.78;12.48;;;5.40;85.70;;;;;;5068342;28;20017;-75
2022/01/13 01:51:57;;;;;;;23.65;10.23;;;5.40;85.80;;;;;;5066634;28;20564;-75
2022/01/13 01:54:24;;;;;;;26.00;11.10;;;5.40;85.90;;;;;;5062012;28;20025;-75
2022/01/13 01:56:50;;;;;;;36.28;10.68;;;5.50;85.90;;;;;;5059292;28;20024;-75
2022/01/13 01:59:20;;;;;;;25.42;9.68;;;5.50;85.80;;;;;;5067229;28;20025;-75
2022/01/13 02:01:47;;;;;;;29.05;10.52;;;5.50;85.90;;;;;;5057202;28;20033;-75
2022/01/13 02:04:13;;;;;;;49.35;12.68;;;5.50;85.80;;;;;;5059057;28;20025;-75
2022/01/13 02:06:38;;;;;;;39.63;9.25;;;5.60;85.80;;;;;;5065693;28;20033;-76
2022/01/13 02:09:07;;;;;;;32.28;11.20;;;5.60;85.80;;;;;;5069164;28;20021;-76
2022/01/13 02:11:41;;;;;;;29.45;9.93;;;5.50;85.70;;;;;;5067562;28;20527;-76
2022/01/13 02:14:21;;;;;;;33.67;8.50;;;5.50;85.80;;;;;;5059805;28;20032;-76
2022/01/13 02:16:50;;;;;;;40.03;10.82;;;5.50;85.80;;;;;;5063544;28;20024;-75
2022/01/13 02:19:16;;;;;;;35.60;9.50;;;5.50;85.80;;;;;;5061011;28;20017;-76
2022/01/13 02:21:42;;;;;;;26.85;10.85;;;5.50;85.80;;;;;;5077652;28;20043;-76
2022/01/13 02:24:08;;;;;;;23.17;9.75;;;5.50;86.00;;;;;;5064508;28;20029;-76
2022/01/13 02:26:33;;;;;;;25.02;10.55;;;5.50;85.80;;;;;;5068434;28;20043;-76
2022/01/13 02:28:59;;;;;;;28.38;10.13;;;5.50;85.80;;;;;;5069718;28;20029;-76
2022/01/13 02:31:26;;;;;;;28.67;9.60;;;5.50;85.90;;;;;;5059524;28;20025;-76
2022/01/13 02:33:53;;;;;;;33.53;10.98;;;5.60;85.80;;;;;;5066838;28;20552;-75
2022/01/13 02:36:20;;;;;;;25.42;8.30;;;5.50;85.70;;;;;;5060526;28;20074;-75
2022/01/13 02:38:50;;;;;;;23.70;9.07;;;5.50;85.80;;;;;;5063128;28;20059;-76
2022/01/13 02:41:16;;;;;;;34.47;10.80;;;5.50;85.80;;;;;;5067923;28;20079;-75
2022/01/13 02:43:44;;;;;;;30.83;10.38;;;5.50;85.80;;;;;;5064033;28;20028;-77
2022/01/13 02:48:59;;;;;;;28.40;8.32;;;5.50;86.00;;;;;;5064629;28;20127;-75
2022/01/13 02:51:24;;;;;;;25.55;9.68;;;5.50;86.00;;;;;;5062180;28;20020;-76
2022/01/13 02:53:50;;;;;;;33.67;10.93;;;5.50;86.00;;;;;;5063678;28;20043;-75
2022/01/13 02:56:15;;;;;;;23.95;8.57;;;5.50;85.90;;;;;;5058160;28;20035;-76
2022/01/13 02:58:41;;;;;;;31.20;9.15;;;5.50;86.00;;;;;;5062472;28;20021;-76
2022/01/13 03:01:06;;;;;;;24.77;9.38;;;5.50;86.00;;;;;;5061676;28;20047;-75
2022/01/13 03:03:35;;;;;;;39.67;8.45;;;5.60;86.00;;;;;;5061284;28;20096;-76
2022/01/13 03:06:11;;;;;;;70.57;10.55;;;5.60;85.90;;;;;;5066611;28;20607;-75
2022/01/13 03:08:39;;;;;;;59.85;11.40;;;5.60;85.90;;;;;;5069112;28;20024;-75
2022/01/13 03:11:05;;;;;;;74.03;12.85;;;5.50;85.90;;;;;;5062779;28;20120;-75
2022/01/13 03:13:31;;;;;;;30.17;8.30;;;5.50;85.80;;;;;;5062434;28;20036;-75
2022/01/13 03:15:57;;;;;;;26.30;8.35;;;5.40;86.00;;;;;;5066687;28;20016;-75
2022/01/13 03:18:22;;;;;;;47.45;10.32;;;5.50;86.10;;;;;;5059858;28;20033;-76
2022/01/13 03:20:48;;;;;;;17.10;6.90;;;5.50;86.00;;;;;;5066907;28;20111;-76
2022/01/13 03:23:17;;;;;;;44.17;9.05;;;5.40;85.90;;;;;;5075132;28;20036;-76
2022/01/13 03:25:47;;;;;;;45.13;9.32;;;5.50;86.10;;;;;;5069226;28;20032;-76
2022/01/13 03:28:27;;;;;;;20.10;7.47;;;5.40;86.00;;;;;;5067143;28;20036;-76
2022/01/13 03:30:53;;;;;;;64.38;9.43;;;5.40;86.10;;;;;;5069663;28;20070;-74
2022/01/13 03:33:18;;;;;;;21.50;7.45;;;5.40;86.00;;;;;;5074101;28;20254;-74
2022/01/13 03:35:44;;;;;;;15.35;6.63;;;5.40;86.20;;;;;;5066511;28;20029;-74
2022/01/13 03:38:10;;;;;;;26.25;7.45;;;5.40;86.20;;;;;;5069603;28;20028;-74
2022/01/13 03:40:36;;;;;;;23.30;6.88;;;5.40;86.20;;;;;;5065327;28;20021;-74
2022/01/13 03:43:02;;;;;;;77.05;9.50;;;5.40;86.20;;;;;;5062285;28;20396;-74
2022/01/13 03:45:28;;;;;;;22.67;7.50;;;5.40;86.20;;;;;;5063605;28;20718;-73
2022/01/13 03:47:54;;;;;;;69.28;10.60;;;5.40;86.20;;;;;;5065106;28;20032;-74
2022/01/13 03:50:20;;;;;;;21.13;7.25;;;5.30;86.20;;;;;;5061256;28;20151;-73
2022/01/13 03:52:59;;;;;;;19.55;7.32;;;5.30;86.20;;;;;;5064620;28;20391;-73
2022/01/13 03:55:38;;;;;;;14.63;5.88;;;5.30;86.30;;;;;;5066027;28;20028;-75
2022/01/13 03:58:35;;;;;;;16.70;5.70;;;5.30;86.30;;;;;;5063164;28;20024;-76
2022/01/13 04:01:26;;;;;;;41.22;8.90;;;5.30;86.40;;;;;;5060189;28;20123;-75
2022/01/13 04:03:51;;;;;;;52.88;10.05;;;5.30;86.40;;;;;;5066152;28;20530;-76
2022/01/13 04:06:17;;;;;;;90.45;10.95;;;5.20;86.30;;;;;;5064329;28;20037;-76
2022/01/13 04:08:47;;;;;;;55.55;9.60;;;5.20;86.50;;;;;;5065995;28;20033;-75
2022/01/13 04:11:19;;;;;;;31.50;8.45;;;5.20;86.60;;;;;;5062678;28;20025;-75
2022/01/13 04:16:18;;;;;;;38.03;9.10;;;5.20;86.70;;;;;;5059509;28;20025;-76
2022/01/13 04:18:47;;;;;;;30.92;8.40;;;5.20;86.70;;;;;;5057268;28;20024;-76
2022/01/13 04:21:12;;;;;;;81.50;9.75;;;5.20;87.30;;;;;;5061840;28;20025;-75
2022/01/13 04:23:38;;;;;;;26.63;9.20;;;5.20;86.70;;;;;;5071633;28;20043;-76
2022/01/13 04:26:08;;;;;;;41.90;9.70;;;5.20;86.60;;;;;;5068904;28;20495;-75
2022/01/13 04:28:34;;;;;;;35.15;8.55;;;5.20;86.70;;;;;;5066364;28;20052;-76
2022/01/13 04:31:00;;;;;;;27.58;7.53;;;5.20;86.70;;;;;;5057133;28;20487;-76
2022/01/13 04:33:28;;;;;;;18.88;8.45;;;5.20;86.80;;;;;;5066381;28;20107;-75
2022/01/13 04:35:54;;;;;;;16.83;7.60;;;5.30;86.90;;;;;;5054112;28;20031;-75
2022/01/13 04:38:19;;;;;;;20.08;9.10;;;5.30;86.70;;;;;;5068221;28;20025;-75
2022/01/13 04:40:47;;;;;;;45.38;8.10;;;5.30;86.40;;;;;;5060036;28;20485;-75
2022/01/13 04:43:13;;;;;;;38.13;10.07;;;5.30;86.60;;;;;;5065458;28;20543;-76
2022/01/13 04:45:39;;;;;;;31.83;7.75;;;5.30;86.60;;;;;;5067695;28;20100;-76
2022/01/13 04:48:05;;;;;;;20.65;7.75;;;5.30;86.70;;;;;;5063070;28;20028;-75
2022/01/13 04:50:30;;;;;;;15.65;6.80;;;5.40;86.70;;;;;;5064890;28;20090;-75
2022/01/13 04:52:56;;;;;;;27.42;8.80;;;5.40;86.60;;;;;;5061150;28;20033;-76
2022/01/13 04:55:25;;;;;;;39.50;8.48;;;5.50;86.70;;;;;;5061782;28;20391;-76
2022/01/13 04:57:52;;;;;;;47.60;10.38;;;5.50;86.50;;;;;;5061204;28;20292;-76
2022/01/13 05:00:18;;;;;;;36.63;9.18;;;5.40;86.30;;;;;;5062685;28;20909;-75
2022/01/13 05:02:44;;;;;;;34.55;8.65;;;5.40;86.30;;;;;;5064289;28;20025;-74
2022/01/13 05:05:10;;;;;;;31.35;10.02;;;5.30;86.40;;;;;;5058802;28;20028;-75
2022/01/13 05:07:37;;;;;;;53.55;10.75;;;5.30;86.40;;;;;;5065485;28;20040;-75
2022/01/13 05:10:03;;;;;;;28.33;9.60;;;5.20;86.40;;;;;;5066347;28;20025;-75
2022/01/13 05:12:35;;;;;;;21.08;7.75;;;5.20;86.50;;;;;;5061830;28;20021;-76
2022/01/13 05:15:03;;;;;;;29.43;7.73;;;5.20;86.60;;;;;;5061166;28;20692;-75
2022/01/13 05:18:05;;;;;;;17.15;8.15;;;5.20;86.60;;;;;;5060866;28;20035;-75
2022/01/13 05:20:58;;;;;;;31.52;8.73;;;5.20;86.50;;;;;;5068143;28;20020;-76
2022/01/13 05:23:17;;;;;;;29.98;8.82;;;5.20;86.60;;;;;;5075074;28;20709;-77
2022/01/13 05:25:44;;;;;;;17.13;7.28;;;5.30;86.70;;;;;;5060601;28;20086;-76
2022/01/13 05:28:10;;;;;;;31.25;9.43;;;5.20;86.60;;;;;;5064304;28;20029;-77
2022/01/13 05:30:36;;;;;;;124.93;13.18;;;5.20;86.60;;;;;;5067674;28;20055;-77
2022/01/13 05:33:03;;;;;;;28.50;8.88;;;5.30;86.60;;;;;;5067002;28;20062;-77
2022/01/13 05:35:28;;;;;;;95.82;13.25;;;5.20;86.40;;;;;;5066481;28;20065;-77
2022/01/13 05:37:54;;;;;;;33.42;9.85;;;5.10;86.30;;;;;;5069109;28;20017;-77
2022/01/13 05:40:20;;;;;;;23.38;9.65;;;5.00;86.30;;;;;;5064035;28;20395;-77
2022/01/13 05:42:46;;;;;;;19.80;7.53;;;5.00;86.50;;;;;;5064316;28;20491;-78
2022/01/13 05:45:19;;;;;;;26.92;9.30;;;5.00;86.70;;;;;;5071045;28;20025;-78
2022/01/13 05:47:48;;;;;;;35.33;10.35;;;4.90;86.50;;;;;;5060709;28;20037;-77
2022/01/13 05:50:15;;;;;;;19.80;8.70;;;4.90;86.50;;;;;;5066899;28;20062;-77
2022/01/13 05:52:41;;;;;;;18.88;8.10;;;4.90;86.70;;;;;;5065183;28;20036;-78
2022/01/13 05:55:07;;;;;;;29.98;7.53;;;5.00;86.90;;;;;;5061078;28;20025;-77
2022/01/13 05:57:33;;;;;;;24.40;7.68;;;4.90;86.70;;;;;;5059116;28;20054;-77
2022/01/13 05:59:59;;;;;;;25.17;8.38;;;5.00;86.80;;;;;;5054099;28;20108;-77
2022/01/13 06:02:24;;;;;;;25.17;9.27;;;4.90;86.70;;;;;;5064669;28;20021;-77
2022/01/13 06:04:50;;;;;;;11.60;6.15;;;4.90;86.70;;;;;;5063650;28;20039;-78
2022/01/13 06:07:16;;;;;;;34.03;8.43;;;5.00;86.90;;;;;;5063465;28;20029;-78
2022/01/13 06:09:42;;;;;;;26.90;9.05;;;5.00;86.80;;;;;;5067116;28;20044;-78
2022/01/13 06:12:08;;;;;;;16.63;7.22;;;5.00;86.80;;;;;;5062970;28;20052;-78
2022/01/13 06:14:34;;;;;;;29.52;8.07;;;5.00;86.70;;;;;;5061890;28;20029;-77
2022/01/13 06:16:59;;;;;;;15.07;6.25;;;5.00;86.70;;;;;;5058070;28;20558;-76
2022/01/13 06:19:25;;;;;;;21.35;7.72;;;5.00;86.70;;;;;;5064466;28;20024;-76
2022/01/13 06:21:50;;;;;;;25.67;8.95;;;5.00;86.70;;;;;;5061998;28;20096;-77
2022/01/13 06:24:16;;;;;;;46.03;8.90;;;5.00;86.60;;;;;;5065495;28;20033;-76
2022/01/13 06:26:42;;;;;;;19.02;6.63;;;4.90;86.70;;;;;;5062002;28;20111;-75
2022/01/13 06:29:08;;;;;;;25.40;7.85;;;5.00;86.90;;;;;;5065399;28;20044;-75
2022/01/13 06:31:33;;;;;;;21.23;7.57;;;5.00;86.90;;;;;;5070552;28;20095;-75
2022/01/13 06:33:59;;;;;;;32.20;7.47;;;5.00;86.80;;;;;;5062014;28;20028;-75
2022/01/13 06:36:25;;;;;;;30.98;7.93;;;5.00;86.80;;;;;;5063107;28;20025;-76
2022/01/13 06:38:51;;;;;;;22.30;7.70;;;5.00;86.80;;;;;;5065087;28;20032;-75
2022/01/13 06:41:17;;;;;;;27.30;7.32;;;5.00;86.80;;;;;;5064828;28;20028;-75
2022/01/13 06:43:43;;;;;;;17.65;6.90;;;5.00;86.90;;;;;;5060448;28;20031;-75
2022/01/13 06:46:11;;;;;;;17.08;6.72;;;5.00;86.90;;;;;;5058147;28;20431;-75
2022/01/13 06:48:37;;;;;;;24.08;7.38;;;5.00;86.90;;;;;;5060123;28;20021;-75
2022/01/13 06:51:02;;;;;;;34.70;8.43;;;5.00;87.00;;;;;;5061561;28;20375;-75
2022/01/13 06:53:28;;;;;;;21.52;7.38;;;5.00;86.90;;;;;;5066119;28;20037;-75
2022/01/13 06:55:53;;;;;;;34.17;7.70;;;5.00;86.90;;;;;;5064896;28;20021;-75
2022/01/13 06:58:19;;;;;;;15.52;7.53;;;5.00;86.90;;;;;;5057784;28;20041;-75
2022/01/13 07:00:45;;;;;;;17.08;6.88;;;4.90;86.90;;;;;;5058738;28;20093;-75
2022/01/13 07:03:10;;;;;;;29.40;7.60;;;5.00;87.10;;;;;;5065626;28;20029;-75
2022/01/13 07:05:36;;;;;;;10.20;5.07;;;5.00;87.10;;;;;;5066387;28;20459;-75
2022/01/13 07:08:03;;;;;;;24.13;6.63;;;5.00;86.90;;;;;;5056994;28;20113;-74
2022/01/13 07:10:29;;;;;;;12.60;5.55;;;5.00;86.90;;;;;;5065983;28;20024;-75
2022/01/13 07:12:55;;;;;;;17.05;6.88;;;5.10;87.00;;;;;;5061368;28;20036;-76
2022/01/13 07:15:21;;;;;;;24.83;6.60;;;5.10;86.90;;;;;;5065771;28;20031;-77
2022/01/13 07:17:46;;;;;;;15.63;6.95;;;5.10;86.80;;;;;;5060138;28;20029;-75
2022/01/13 07:20:12;;;;;;;14.30;6.03;;;5.10;86.70;;;;;;5067350;28;20028;-75
2022/01/13 07:22:39;;;;;;;16.13;6.03;;;5.10;86.70;;;;;;5069183;28;20032;-75
2022/01/13 07:25:08;;;;;;;17.85;6.68;;;5.20;86.70;;;;;;5053664;28;20052;-75
2022/01/13 07:27:34;;;;;;;12.63;5.20;;;5.20;86.70;;;;;;5058455;28;20032;-78
2022/01/13 07:30:00;;;;;;;14.75;6.60;;;5.20;86.60;;;;;;5056412;28;20480;-79
2022/01/13 07:32:26;;;;;;;21.73;7.28;;;5.20;86.60;;;;;;5062768;28;20485;-77
2022/01/13 07:34:51;;;;;;;12.95;6.75;;;5.20;86.60;;;;;;5063979;28;20021;-81
2022/01/13 07:37:17;;;;;;;12.30;6.40;;;5.20;86.40;;;;;;5057517;28;20164;-80
2022/01/13 07:39:43;;;;;;;20.02;7.07;;;5.20;86.50;;;;;;5065591;28;20017;-82
2022/01/13 07:42:09;;;;;;;10.75;6.07;;;5.20;86.50;;;;;;5064660;28;20025;-80
2022/01/13 07:44:34;;;;;;;16.23;6.65;;;5.20;86.60;;;;;;5068818;28;20513;-78
2022/01/13 07:47:00;;;;;;;16.88;6.72;;;5.20;86.60;;;;;;5066957;28;20046;-79
2022/01/13 07:49:27;;;;;;;16.35;6.90;;;5.10;86.60;;;;;;5065424;28;20017;-78
2022/01/13 07:51:53;;;;;;;18.38;5.18;;;5.10;86.60;;;;;;5056954;28;20036;-83
2022/01/13 07:54:19;;;;;;;13.10;6.38;;;5.20;86.70;;;;;;5063237;28;20016;-83
2022/01/13 07:56:44;;;;;;;12.93;6.05;;;5.20;86.60;;;;;;5063058;28;20042;-78
2022/01/13 07:59:10;;;;;;;10.60;5.30;;;5.10;86.70;;;;;;5053510;28;20091;-78
2022/01/13 08:01:35;;;;;;;12.90;6.45;;;5.20;86.70;;;;;;5069360;28;20024;-80
2022/01/13 08:04:01;;;;;;;14.75;5.78;;;5.20;86.70;;;;;;5058637;28;20019;-78
2022/01/13 08:06:26;;;;;;;13.55;5.93;;;5.20;86.70;;;;;;5064390;28;20115;-79
2022/01/13 08:08:52;;;;;;;13.88;6.03;;;5.30;86.70;;;;;;5066708;28;20024;-79
2022/01/13 08:11:18;;;;;;;9.63;5.88;;;5.30;86.60;;;;;;5062175;28;20114;-79
2022/01/13 08:13:44;;;;;;;7.93;4.53;;;5.30;86.60;;;;;;5068493;28;20032;-79
2022/01/13 08:16:10;;;;;;;11.00;5.32;;;5.30;87.20;;;;;;5064995;28;20051;-78
2022/01/13 08:21:23;;;;;;;10.90;5.97;;;5.40;86.50;;;;;;5074559;28;20040;-79
2022/01/13 08:23:50;;;;;;;12.10;6.43;;;5.30;86.40;;;;;;5078727;28;20086;-78
2022/01/13 08:26:16;;;;;;;10.80;5.32;;;5.30;86.50;;;;;;5075688;28;20124;-79
2022/01/13 08:28:42;;;;;;;9.63;5.30;;;5.30;86.50;;;;;;5077082;28;20032;-79
2022/01/13 08:31:08;;;;;;;12.48;5.57;;;5.40;86.60;;;;;;5075875;28;20630;-80
2022/01/13 08:33:34;;;;;;;10.48;5.38;;;5.40;86.50;;;;;;5073343;28;20055;-79
2022/01/13 08:35:59;;;;;;;12.85;5.78;;;5.40;86.20;;;;;;5076233;28;20093;-80
2022/01/13 08:38:25;;;;;;;14.85;6.10;;;5.40;86.20;;;;;;5070599;28;20438;-78
2022/01/13 08:40:54;;;;;;;10.63;4.82;;;5.30;86.20;;;;;;5072459;28;20029;-78
2022/01/13 08:43:21;;;;;;;16.15;6.47;;;5.30;86.30;;;;;;5070898;28;20052;-77
2022/01/13 08:45:47;;;;;;;11.48;5.57;;;5.30;86.20;;;;;;5070990;28;20020;-78
2022/01/13 08:48:13;;;;;;;14.15;6.35;;;5.30;86.40;;;;;;5068502;28;20495;-79
2022/01/13 08:50:40;;;;;;;12.90;5.88;;;5.30;86.40;;;;;;5064477;28;20035;-77
2022/01/13 08:53:05;;;;;;;24.48;6.38;;;5.30;86.40;;;;;;5070234;28;20580;-81
2022/01/13 08:55:32;;;;;;;12.80;6.45;;;5.30;86.40;;;;;;5063929;28;20037;-78
2022/01/13 08:57:57;;;;;;;14.25;5.30;;;5.30;86.30;;;;;;5074252;28;20138;-79
2022/01/13 09:00:23;;;;;;;16.77;5.55;;;5.20;86.30;;;;;;5072125;28;20116;-78
2022/01/13 09:02:49;;;;;;;11.63;5.68;;;5.20;86.40;;;;;;5073468;28;20032;-78
2022/01/13 09:05:17;;;;;;;12.73;5.82;;;5.20;86.50;;;;;;5071824;28;20024;-78
2022/01/13 09:07:43;;;;;;;16.08;5.88;;;5.20;86.50;;;;;;5074404;28;20040;-83
2022/01/13 09:10:10;;;;;;;8.43;4.80;;;5.20;86.50;;;;;;5075428;28;20502;-78
2022/01/13 09:12:36;;;;;;;19.45;5.60;;;5.30;86.60;;;;;;5069659;28;20029;-77
2022/01/13 09:15:14;;;;;;;42.22;8.32;;;5.30;86.50;;;;;;5076786;28;20020;-79
2022/01/13 09:17:42;;;;;;;9.05;5.13;;;5.30;86.30;;;;;;5074542;28;20397;-78
2022/01/13 09:20:12;;;;;;;5.88;3.80;;;5.30;86.40;;;;;;5070365;28;20029;-81
2022/01/13 09:22:39;;;;;;;10.52;5.00;;;5.30;86.40;;;;;;5068069;28;20139;-79
2022/01/13 09:25:07;;;;;;;20.77;7.28;;;5.20;86.30;;;;;;5072190;28;20066;-80
2022/01/13 09:27:33;;;;;;;15.35;5.93;;;5.30;86.40;;;;;;5073124;28;20083;-79
2022/01/13 09:30:00;;;;;;;13.77;5.88;;;5.20;86.50;;;;;;5066809;28;20082;-79
2022/01/13 09:32:26;;;;;;;12.02;5.03;;;5.20;86.50;;;;;;5073836;28;20032;-79
2022/01/13 09:34:52;;;;;;;14.45;5.65;;;5.20;86.60;;;;;;5073934;28;20471;-78
2022/01/13 09:37:17;;;;;;;6.03;3.80;;;5.20;86.70;;;;;;5075852;28;20630;-79
2022/01/13 09:39:43;;;;;;;9.95;4.88;;;5.20;86.70;;;;;;5070393;28;20403;-80
2022/01/13 09:42:09;;;;;;;18.58;6.07;;;5.30;86.70;;;;;;5071571;28;20036;-79
2022/01/13 09:44:35;;;;;;;11.48;6.00;;;5.30;86.60;;;;;;5068594;28;20104;-80
2022/01/13 09:47:04;;;;;;;12.68;4.70;;;5.20;86.70;;;;;;5073632;28;20036;-81
2022/01/13 09:49:29;;;;;;;15.48;5.25;;;5.30;86.70;;;;;;5065021;28;20025;-78
2022/01/13 09:51:55;;;;;;;17.48;5.15;;;5.30;86.60;;;;;;5061935;28;20043;-80
2022/01/13 09:54:21;;;;;;;8.68;4.18;;;5.30;86.60;;;;;;5067919;28;20024;-80
2022/01/13 09:56:46;;;;;;;22.13;5.40;;;5.30;86.60;;;;;;5067159;28;20391;-79
2022/01/13 09:59:12;;;;;;;21.13;5.18;;;5.30;86.50;;;;;;5063620;28;20024;-81
2022/01/13 10:01:38;;;;;;;14.10;5.70;;;5.30;86.50;;;;;;5064435;28;20074;-80
2022/01/13 10:04:03;;;;;;;12.18;6.30;;;5.30;86.50;;;;;;5067954;28;20028;-80
2022/01/13 10:06:29;;;;;;;24.15;5.47;;;5.30;86.40;;;;;;5079702;28;20024;-79
2022/01/13 10:08:59;;;;;;;16.50;5.68;;;5.30;86.50;;;;;;5077872;28;20030;-78
2022/01/13 10:11:34;;;;;;;19.88;5.50;;;5.30;86.50;;;;;;5075132;28;20025;-78
2022/01/13 10:14:10;;;;;;;9.27;4.40;;;5.30;86.60;;;;;;5072688;28;20056;-80
2022/01/13 10:16:46;;;;;;;17.63;5.50;;;5.30;86.60;;;;;;5067798;28;20538;-79
2022/01/13 10:19:37;;;;;;;15.25;4.82;;;5.30;86.60;;;;;;5065266;28;20021;-78
2022/01/13 10:22:09;;;;;;;9.32;4.25;;;5.30;86.60;;;;;;5065785;28;20090;-78
2022/01/13 10:24:38;;;;;;;29.17;6.35;;;5.30;86.60;;;;;;5075131;28;20044;-79
2022/01/13 10:27:07;;;;;;;9.88;5.47;;;5.30;86.60;;;;;;5064551;28;20032;-79
2022/01/13 10:29:41;;;;;;;37.70;7.32;;;5.30;86.60;;;;;;5064149;28;20052;-79
2022/01/13 10:32:08;;;;;;;10.55;4.93;;;5.30;86.60;;;;;;5067499;28;20035;-78
2022/01/13 10:34:37;;;;;;;18.58;5.80;;;5.30;86.70;;;;;;5065998;28;20637;-81
2022/01/13 10:37:06;;;;;;;14.98;6.30;;;5.30;86.80;;;;;;5068335;28;20380;-78
2022/01/13 10:39:52;;;;;;;13.52;4.97;;;5.30;86.60;;;;;;5067317;28;20434;-80
2022/01/13 10:43:06;;;;;;;20.27;5.70;;;5.30;86.70;;;;;;5067332;28;20024;-79
2022/01/13 10:45:41;;;;;;;15.65;5.10;;;5.30;86.70;;;;;;5068644;28;20059;-79
2022/01/13 10:48:26;;;;;;;9.43;5.40;;;5.30;86.70;;;;;;5059419;28;20483;-79
2022/01/13 10:50:56;;;;;;;20.05;6.25;;;5.20;86.60;;;;;;5062577;28;20045;-78
2022/01/13 10:53:34;;;;;;;11.13;4.55;;;5.20;86.80;;;;;;5066548;28;20041;-79
2022/01/13 10:56:11;;;;;;;10.88;4.38;;;5.30;87.10;;;;;;5066926;28;20036;-79
2022/01/13 10:58:41;;;;;;;23.10;5.93;;;5.30;87.00;;;;;;5062995;28;20053;-77
2022/01/13 11:01:10;;;;;;;20.45;5.70;;;5.20;87.00;;;;;;5068443;28;20583;-76
2022/01/13 11:03:40;;;;;;;26.23;5.45;;;5.20;87.00;;;;;;5065340;28;20021;-81
2022/01/13 11:06:08;;;;;;;11.05;5.32;;;5.20;87.00;;;;;;5056349;28;20051;-78
2022/01/13 11:08:41;;;;;;;20.85;5.45;;;5.30;87.10;;;;;;5063500;28;20499;-79
2022/01/13 11:11:20;;;;;;;9.60;3.90;;;5.30;87.10;;;;;;5064497;28;20035;-79
2022/01/13 11:13:52;;;;;;;22.00;5.35;;;5.30;87.00;;;;;;5066393;28;20027;-79
2022/01/13 11:16:18;;;;;;;16.35;5.18;;;5.30;87.00;;;;;;5064182;28;20029;-77
2022/01/13 11:18:43;;;;;;;22.23;5.40;;;5.20;87.00;;;;;;5070958;28;20585;-79
2022/01/13 11:21:09;;;;;;;15.00;6.05;;;5.30;87.10;;;;;;5066353;28;20512;-78
2022/01/13 11:23:36;;;;;;;20.98;5.70;;;5.30;87.00;;;;;;5072961;28;20017;-76
2022/01/13 11:26:04;;;;;;;14.38;5.72;;;5.30;87.10;;;;;;5060797;28;20558;-77
2022/01/13 11:28:29;;;;;;;9.05;4.57;;;5.40;87.10;;;;;;5064676;28;20036;-77
2022/01/13 11:30:55;;;;;;;15.90;5.47;;;5.40;87.10;;;;;;5071729;28;20374;-77
2022/01/13 11:33:23;;;;;;;39.35;6.60;;;5.50;87.10;;;;;;5064045;28;20032;-77
2022/01/13 11:35:55;;;;;;;16.27;5.18;;;5.50;87.00;;;;;;5059692;28;20032;-78
2022/01/13 11:38:21;;;;;;;;;;;5.50;87.00;;;;;;5070925;28;20032;-78
2022/01/13 11:40:50;;;;;;;12.65;6.03;;;5.50;86.90;;;;;;5061256;28;20260;-78
2022/01/13 11:43:39;;;;;;;31.95;6.68;;;5.50;87.00;;;;;;5070882;28;20055;-78
2022/01/13 11:46:43;;;;;;;10.68;5.10;;;5.50;87.00;;;;;;5060962;28;20103;-77
2022/01/13 11:49:19;;;;;;;13.63;7.25;;;5.50;87.00;;;;;;5049880;28;20045;-79
2022/01/13 11:52:00;;;;;;;17.38;6.10;;;5.50;87.00;;;;;;5066506;28;20158;-78
2022/01/13 11:54:27;;;;;;;14.60;5.95;;;5.50;87.20;;;;;;5063478;28;20029;-78
2022/01/13 11:57:19;;;;;;;14.95;6.03;;;5.50;87.20;;;;;;5072033;28;20488;-80
2022/01/13 12:00:00;;;;;;;23.73;6.88;;;5.50;87.20;;;;;;5063373;28;20765;-78
2022/01/13 12:02:38;;;;;;;17.30;6.20;;;5.50;87.20;;;;;;5063158;28;20032;-80
2022/01/13 12:05:14;;;;;;;33.63;6.40;;;5.50;87.20;;;;;;5065095;28;20112;-78
2022/01/13 12:07:47;;;;;;;50.33;6.47;;;5.50;87.10;;;;;;5063361;28;20042;-78
2022/01/13 12:10:35;;;;;;;44.80;8.15;;;5.50;87.00;;;;;;5063066;28;20028;-77
2022/01/13 12:13:20;;;;;;;47.70;7.85;;;5.50;87.00;;;;;;5069460;28;20042;-79
2022/01/13 12:15:46;;;;;;;21.88;7.10;;;5.50;87.10;;;;;;5066710;28;20040;-82
2022/01/13 12:18:12;;;;;;;25.13;7.28;;;5.40;87.10;;;;;;5063106;28;20034;-80
2022/01/13 12:20:42;;;;;;;19.05;6.13;;;5.40;87.10;;;;;;5064433;28;20426;-78
2022/01/13 12:23:43;;;;;;;19.20;5.65;;;5.40;87.20;;;;;;5073887;28;20067;-78
2022/01/13 12:26:30;;;;;;;15.90;6.53;;;5.50;87.30;;;;;;5061918;28;20052;-78
2022/01/13 12:29:23;;;;;;;36.13;7.28;;;5.40;87.10;;;;;;5066447;28;20032;-79
2022/01/13 12:32:01;;;;;;;10.77;5.22;;;5.40;87.10;;;;;;5072962;28;20376;-79
2022/01/13 12:34:32;;;;;;;17.67;7.00;;;5.40;87.20;;;;;;5059499;28;20021;-77
2022/01/13 12:37:19;;;;;;;21.10;6.43;;;5.30;87.20;;;;;;5058403;28;20036;-80
2022/01/13 12:39:48;;;;;;;17.80;5.60;;;5.30;87.40;;;;;;5062409;28;20051;-80
2022/01/13 12:42:21;;;;;;;24.35;5.82;;;5.40;87.50;;;;;;5060396;28;20378;-79
2022/01/13 12:47:31;;;;;;;29.10;7.18;;;5.50;87.30;;;;;;5060772;28;20090;-77
2022/01/13 12:49:57;;;;;;;27.88;6.57;;;5.50;87.20;;;;;;5066509;28;20617;-79
2022/01/13 12:52:28;;;;;;;31.70;6.45;;;5.50;87.20;;;;;;5065828;28;20032;-79
2022/01/13 12:54:55;;;;;;;22.38;4.85;;;5.50;87.20;;;;;;5059950;28;20017;-79
2022/01/13 12:57:22;;;;;;;73.60;7.82;;;5.50;87.30;;;;;;5063653;28;20809;-77
2022/01/13 12:59:57;;;;;;;37.53;6.40;;;5.60;87.30;;;;;;5055624;28;20020;-79
2022/01/13 13:02:23;;;;;;;25.52;6.10;;;5.50;87.10;;;;;;5058124;28;20120;-77
2022/01/13 13:04:49;;;;;;;15.95;6.50;;;5.50;87.10;;;;;;5068520;28;20966;-77
2022/01/13 13:07:14;;;;;;;21.02;5.97;;;5.40;87.00;;;;;;5070840;28;20032;-80
2022/01/13 13:09:40;;;;;;;19.77;6.05;;;5.40;87.20;;;;;;5056650;28;20083;-81
2022/01/13 13:12:11;;;;;;;9.88;5.40;;;5.40;87.30;;;;;;5062674;28;20063;-81
2022/01/13 13:17:35;;;;;;;14.85;5.60;;;5.30;87.40;;;;;;5062598;28;20997;-81